sensor_id;sensor_type;location;lat;lon;timestamp;P1;durP1;ratioP1;P2;durP2;ratioP2
71435;SDS011;59251;51.326;12.370;2023-02-28T00:00:43;7.83;;;1.70;;
71435;SDS011;59251;51.326;12.370;2023-02-28T00:03:08;7.75;;;1.45;;
71435;SDS011;59251;51.326;12.370;2023-02-28T00:05:34;7.00;;;1.67;;
71435;SDS011;59251;51.326;12.370;2023-02-28T00:07:59;7.27;;;1.70;;
71435;SDS011;59251;51.326;12.370;2023-02-28T00:10:26;5.93;;;1.77;;
71435;SDS011;59251;51.326;12.370;2023-02-28T00:12:54;9.80;;;2.00;;
71435;SDS011;59251;51.326;12.370;2023-02-28T00:15:22;6.93;;;1.40;;
71435;SDS011;59251;51.326;12.370;2023-02-28T00:17:48;6.47;;;1.52;;
71435;SDS011;59251;51.326;12.370;2023-02-28T00:20:14;8.33;;;2.13;;
71435;SDS011;59251;51.326;12.370;2023-02-28T00:22:41;6.68;;;1.65;;
71435;SDS011;59251;51.326;12.370;2023-02-28T00:25:09;6.28;;;1.60;;
71435;SDS011;59251;51.326;12.370;2023-02-28T00:27:36;6.22;;;1.50;;
71435;SDS011;59251;51.326;12.370;2023-02-28T00:30:02;7.43;;;1.53;;
71435;SDS011;59251;51.326;12.370;2023-02-28T00:32:29;8.50;;;2.00;;
71435;SDS011;59251;51.326;12.370;2023-02-28T00:34:54;7.85;;;2.13;;
71435;SDS011;59251;51.326;12.370;2023-02-28T00:37:20;7.73;;;1.80;;
71435;SDS011;59251;51.326;12.370;2023-02-28T00:39:45;7.30;;;1.73;;
71435;SDS011;59251;51.326;12.370;2023-02-28T00:42:11;8.33;;;2.20;;
71435;SDS011;59251;51.326;12.370;2023-02-28T00:44:36;7.72;;;1.92;;
71435;SDS011;59251;51.326;12.370;2023-02-28T00:47:01;8.75;;;2.33;;
71435;SDS011;59251;51.326;12.370;2023-02-28T00:49:27;8.13;;;2.03;;
71435;SDS011;59251;51.326;12.370;2023-02-28T00:51:53;8.10;;;1.97;;
71435;SDS011;59251;51.326;12.370;2023-02-28T00:54:20;5.72;;;1.63;;
71435;SDS011;59251;51.326;12.370;2023-02-28T00:56:46;8.13;;;1.90;;
71435;SDS011;59251;51.326;12.370;2023-02-28T00:59:12;6.47;;;1.93;;
71435;SDS011;59251;51.326;12.370;2023-02-28T01:01:38;9.10;;;2.08;;
71435;SDS011;59251;51.326;12.370;2023-02-28T01:04:04;8.03;;;2.13;;
71435;SDS011;59251;51.326;12.370;2023-02-28T01:06:30;7.40;;;2.20;;
71435;SDS011;59251;51.326;12.370;2023-02-28T01:08:56;7.32;;;1.90;;
71435;SDS011;59251;51.326;12.370;2023-02-28T01:11:22;7.67;;;1.70;;
71435;SDS011;59251;51.326;12.370;2023-02-28T01:13:47;7.97;;;1.87;;
71435;SDS011;59251;51.326;12.370;2023-02-28T01:16:13;7.07;;;2.07;;
71435;SDS011;59251;51.326;12.370;2023-02-28T01:18:38;8.38;;;2.20;;
71435;SDS011;59251;51.326;12.370;2023-02-28T01:21:05;6.93;;;1.98;;
71435;SDS011;59251;51.326;12.370;2023-02-28T01:23:32;7.97;;;2.13;;
71435;SDS011;59251;51.326;12.370;2023-02-28T01:25:59;7.95;;;1.80;;
71435;SDS011;59251;51.326;12.370;2023-02-28T01:28:29;6.67;;;1.90;;
71435;SDS011;59251;51.326;12.370;2023-02-28T01:30:54;7.65;;;1.83;;
71435;SDS011;59251;51.326;12.370;2023-02-28T01:33:20;8.53;;;2.10;;
71435;SDS011;59251;51.326;12.370;2023-02-28T01:35:45;8.03;;;2.20;;
71435;SDS011;59251;51.326;12.370;2023-02-28T01:38:10;6.17;;;1.90;;
71435;SDS011;59251;51.326;12.370;2023-02-28T01:40:36;7.57;;;2.23;;
71435;SDS011;59251;51.326;12.370;2023-02-28T01:43:01;6.67;;;1.73;;
71435;SDS011;59251;51.326;12.370;2023-02-28T01:45:27;7.73;;;1.83;;
71435;SDS011;59251;51.326;12.370;2023-02-28T01:47:56;9.07;;;1.85;;
71435;SDS011;59251;51.326;12.370;2023-02-28T01:50:25;7.90;;;1.85;;
71435;SDS011;59251;51.326;12.370;2023-02-28T01:52:53;8.35;;;1.80;;
71435;SDS011;59251;51.326;12.370;2023-02-28T01:55:22;8.32;;;2.00;;
71435;SDS011;59251;51.326;12.370;2023-02-28T01:57:54;11.07;;;2.50;;
71435;SDS011;59251;51.326;12.370;2023-02-28T02:00:22;9.90;;;2.00;;
71435;SDS011;59251;51.326;12.370;2023-02-28T02:02:50;8.27;;;2.10;;
71435;SDS011;59251;51.326;12.370;2023-02-28T02:05:19;8.65;;;2.13;;
71435;SDS011;59251;51.326;12.370;2023-02-28T02:07:46;7.20;;;2.20;;
71435;SDS011;59251;51.326;12.370;2023-02-28T02:10:20;8.80;;;2.00;;
71435;SDS011;59251;51.326;12.370;2023-02-28T02:15:20;8.85;;;2.20;;
71435;SDS011;59251;51.326;12.370;2023-02-28T02:17:55;8.05;;;2.05;;
71435;SDS011;59251;51.326;12.370;2023-02-28T02:25:56;7.37;;;1.67;;
71435;SDS011;59251;51.326;12.370;2023-02-28T02:32:02;8.65;;;2.25;;
71435;SDS011;59251;51.326;12.370;2023-02-28T02:34:54;10.70;;;2.00;;
71435;SDS011;59251;51.326;12.370;2023-02-28T02:37:27;8.77;;;1.98;;
71435;SDS011;59251;51.326;12.370;2023-02-28T02:43:11;9.43;;;2.20;;
71435;SDS011;59251;51.326;12.370;2023-02-28T02:45:22;10.02;;;2.00;;
71435;SDS011;59251;51.326;12.370;2023-02-28T02:48:00;7.53;;;2.00;;
71435;SDS011;59251;51.326;12.370;2023-02-28T02:50:31;7.28;;;2.28;;
71435;SDS011;59251;51.326;12.370;2023-02-28T02:53:02;9.80;;;2.20;;
71435;SDS011;59251;51.326;12.370;2023-02-28T02:55:29;8.38;;;1.92;;
71435;SDS011;59251;51.326;12.370;2023-02-28T02:57:59;8.45;;;2.20;;
71435;SDS011;59251;51.326;12.370;2023-02-28T03:00:34;9.73;;;2.60;;
71435;SDS011;59251;51.326;12.370;2023-02-28T03:03:04;10.07;;;2.10;;
71435;SDS011;59251;51.326;12.370;2023-02-28T03:05:52;11.13;;;2.80;;
71435;SDS011;59251;51.326;12.370;2023-02-28T03:08:17;7.43;;;2.03;;
71435;SDS011;59251;51.326;12.370;2023-02-28T03:10:44;9.03;;;2.23;;
71435;SDS011;59251;51.326;12.370;2023-02-28T03:22:08;8.97;;;2.23;;
71435;SDS011;59251;51.326;12.370;2023-02-28T03:24:45;7.45;;;2.00;;
71435;SDS011;59251;51.326;12.370;2023-02-28T03:27:27;9.50;;;2.38;;
71435;SDS011;59251;51.326;12.370;2023-02-28T03:30:00;9.18;;;2.10;;
71435;SDS011;59251;51.326;12.370;2023-02-28T03:32:40;9.05;;;2.25;;
71435;SDS011;59251;51.326;12.370;2023-02-28T03:35:22;8.20;;;2.40;;
71435;SDS011;59251;51.326;12.370;2023-02-28T03:37:52;8.13;;;2.35;;
71435;SDS011;59251;51.326;12.370;2023-02-28T03:40:25;8.07;;;2.00;;
71435;SDS011;59251;51.326;12.370;2023-02-28T03:42:57;8.85;;;2.08;;
71435;SDS011;59251;51.326;12.370;2023-02-28T03:45:28;8.30;;;2.22;;
71435;SDS011;59251;51.326;12.370;2023-02-28T03:50:29;8.75;;;1.98;;
71435;SDS011;59251;51.326;12.370;2023-02-28T03:53:08;8.40;;;2.30;;
71435;SDS011;59251;51.326;12.370;2023-02-28T03:55:40;6.70;;;1.75;;
71435;SDS011;59251;51.326;12.370;2023-02-28T03:58:17;9.80;;;2.28;;
71435;SDS011;59251;51.326;12.370;2023-02-28T04:00:52;8.57;;;2.60;;
71435;SDS011;59251;51.326;12.370;2023-02-28T04:03:23;8.35;;;2.10;;
71435;SDS011;59251;51.326;12.370;2023-02-28T04:05:52;8.50;;;2.10;;
71435;SDS011;59251;51.326;12.370;2023-02-28T04:08:19;7.65;;;2.10;;
71435;SDS011;59251;51.326;12.370;2023-02-28T04:10:47;7.00;;;2.10;;
71435;SDS011;59251;51.326;12.370;2023-02-28T04:13:17;9.60;;;2.65;;
71435;SDS011;59251;51.326;12.370;2023-02-28T04:15:42;7.97;;;2.30;;
71435;SDS011;59251;51.326;12.370;2023-02-28T04:18:08;9.93;;;2.83;;
71435;SDS011;59251;51.326;12.370;2023-02-28T04:20:33;9.30;;;2.22;;
71435;SDS011;59251;51.326;12.370;2023-02-28T04:22:58;7.60;;;2.10;;
71435;SDS011;59251;51.326;12.370;2023-02-28T04:25:24;8.73;;;2.13;;
71435;SDS011;59251;51.326;12.370;2023-02-28T04:27:49;10.60;;;2.43;;
71435;SDS011;59251;51.326;12.370;2023-02-28T04:30:14;9.23;;;2.57;;
71435;SDS011;59251;51.326;12.370;2023-02-28T04:32:40;8.77;;;2.27;;
71435;SDS011;59251;51.326;12.370;2023-02-28T04:35:05;11.97;;;3.10;;
71435;SDS011;59251;51.326;12.370;2023-02-28T04:37:31;9.05;;;2.42;;
71435;SDS011;59251;51.326;12.370;2023-02-28T04:39:59;9.23;;;2.78;;
71435;SDS011;59251;51.326;12.370;2023-02-28T04:42:25;9.07;;;2.37;;
71435;SDS011;59251;51.326;12.370;2023-02-28T04:44:51;9.85;;;3.10;;
71435;SDS011;59251;51.326;12.370;2023-02-28T04:47:16;8.07;;;2.43;;
71435;SDS011;59251;51.326;12.370;2023-02-28T04:49:42;8.70;;;2.63;;
71435;SDS011;59251;51.326;12.370;2023-02-28T04:52:07;8.13;;;2.40;;
71435;SDS011;59251;51.326;12.370;2023-02-28T04:54:34;8.90;;;2.30;;
71435;SDS011;59251;51.326;12.370;2023-02-28T04:57:00;10.90;;;2.60;;
71435;SDS011;59251;51.326;12.370;2023-02-28T04:59:26;9.15;;;2.55;;
71435;SDS011;59251;51.326;12.370;2023-02-28T05:01:52;7.50;;;2.27;;
71435;SDS011;59251;51.326;12.370;2023-02-28T05:04:17;9.00;;;2.67;;
71435;SDS011;59251;51.326;12.370;2023-02-28T05:06:43;10.77;;;2.45;;
71435;SDS011;59251;51.326;12.370;2023-02-28T05:09:08;7.50;;;2.13;;
71435;SDS011;59251;51.326;12.370;2023-02-28T05:11:36;10.85;;;2.60;;
71435;SDS011;59251;51.326;12.370;2023-02-28T05:14:04;7.50;;;2.28;;
71435;SDS011;59251;51.326;12.370;2023-02-28T05:16:32;7.70;;;2.30;;
71435;SDS011;59251;51.326;12.370;2023-02-28T05:18:57;10.35;;;2.38;;
71435;SDS011;59251;51.326;12.370;2023-02-28T05:21:24;8.30;;;2.23;;
71435;SDS011;59251;51.326;12.370;2023-02-28T05:23:53;10.45;;;2.40;;
71435;SDS011;59251;51.326;12.370;2023-02-28T05:26:19;9.32;;;2.75;;
71435;SDS011;59251;51.326;12.370;2023-02-28T05:28:45;9.00;;;2.70;;
71435;SDS011;59251;51.326;12.370;2023-02-28T05:31:10;8.27;;;2.40;;
71435;SDS011;59251;51.326;12.370;2023-02-28T05:33:36;8.75;;;2.20;;
71435;SDS011;59251;51.326;12.370;2023-02-28T05:36:02;9.20;;;2.70;;
71435;SDS011;59251;51.326;12.370;2023-02-28T05:38:28;8.77;;;2.58;;
71435;SDS011;59251;51.326;12.370;2023-02-28T05:40:54;9.33;;;2.70;;
71435;SDS011;59251;51.326;12.370;2023-02-28T05:43:19;8.23;;;2.57;;
71435;SDS011;59251;51.326;12.370;2023-02-28T05:45:44;10.00;;;3.03;;
71435;SDS011;59251;51.326;12.370;2023-02-28T05:48:10;8.03;;;2.70;;
71435;SDS011;59251;51.326;12.370;2023-02-28T05:50:35;7.60;;;2.40;;
71435;SDS011;59251;51.326;12.370;2023-02-28T05:53:01;7.65;;;2.22;;
71435;SDS011;59251;51.326;12.370;2023-02-28T05:55:27;9.33;;;2.50;;
71435;SDS011;59251;51.326;12.370;2023-02-28T05:57:52;9.55;;;2.63;;
71435;SDS011;59251;51.326;12.370;2023-02-28T06:00:17;6.90;;;2.10;;
71435;SDS011;59251;51.326;12.370;2023-02-28T06:02:43;8.60;;;2.87;;
71435;SDS011;59251;51.326;12.370;2023-02-28T06:05:13;13.73;;;3.03;;
71435;SDS011;59251;51.326;12.370;2023-02-28T06:07:39;11.73;;;2.88;;
71435;SDS011;59251;51.326;12.370;2023-02-28T06:10:05;9.70;;;2.57;;
71435;SDS011;59251;51.326;12.370;2023-02-28T06:12:31;11.63;;;2.95;;
71435;SDS011;59251;51.326;12.370;2023-02-28T06:14:56;10.87;;;2.97;;
71435;SDS011;59251;51.326;12.370;2023-02-28T06:17:21;9.73;;;3.20;;
71435;SDS011;59251;51.326;12.370;2023-02-28T06:19:47;9.37;;;2.80;;
71435;SDS011;59251;51.326;12.370;2023-02-28T06:22:13;11.38;;;3.50;;
71435;SDS011;59251;51.326;12.370;2023-02-28T06:24:38;9.97;;;3.00;;
71435;SDS011;59251;51.326;12.370;2023-02-28T06:27:04;9.17;;;2.67;;
71435;SDS011;59251;51.326;12.370;2023-02-28T06:29:30;9.05;;;2.40;;
71435;SDS011;59251;51.326;12.370;2023-02-28T06:31:57;14.35;;;2.78;;
71435;SDS011;59251;51.326;12.370;2023-02-28T06:34:22;10.77;;;3.20;;
71435;SDS011;59251;51.326;12.370;2023-02-28T06:36:49;12.80;;;2.73;;
71435;SDS011;59251;51.326;12.370;2023-02-28T06:39:16;11.07;;;2.67;;
71435;SDS011;59251;51.326;12.370;2023-02-28T06:41:42;12.43;;;2.72;;
71435;SDS011;59251;51.326;12.370;2023-02-28T06:44:12;9.17;;;2.73;;
71435;SDS011;59251;51.326;12.370;2023-02-28T06:46:42;9.75;;;3.90;;
71435;SDS011;59251;51.326;12.370;2023-02-28T06:49:09;11.35;;;2.90;;
71435;SDS011;59251;51.326;12.370;2023-02-28T06:51:36;9.88;;;2.78;;
71435;SDS011;59251;51.326;12.370;2023-02-28T06:54:03;9.10;;;2.88;;
71435;SDS011;59251;51.326;12.370;2023-02-28T06:56:28;11.57;;;2.90;;
71435;SDS011;59251;51.326;12.370;2023-02-28T06:58:54;10.18;;;3.13;;
71435;SDS011;59251;51.326;12.370;2023-02-28T07:01:19;10.98;;;3.20;;
71435;SDS011;59251;51.326;12.370;2023-02-28T07:03:45;10.18;;;3.05;;
71435;SDS011;59251;51.326;12.370;2023-02-28T07:06:11;10.33;;;2.97;;
71435;SDS011;59251;51.326;12.370;2023-02-28T07:08:37;12.32;;;3.28;;
71435;SDS011;59251;51.326;12.370;2023-02-28T07:11:03;10.17;;;3.07;;
71435;SDS011;59251;51.326;12.370;2023-02-28T07:13:28;11.23;;;2.97;;
71435;SDS011;59251;51.326;12.370;2023-02-28T07:16:01;16.23;;;2.87;;
71435;SDS011;59251;51.326;12.370;2023-02-28T07:18:28;10.50;;;3.00;;
71435;SDS011;59251;51.326;12.370;2023-02-28T07:20:54;9.73;;;3.13;;
71435;SDS011;59251;51.326;12.370;2023-02-28T07:23:20;11.23;;;3.10;;
71435;SDS011;59251;51.326;12.370;2023-02-28T07:25:46;9.77;;;2.63;;
71435;SDS011;59251;51.326;12.370;2023-02-28T07:28:12;11.80;;;3.47;;
71435;SDS011;59251;51.326;12.370;2023-02-28T07:30:38;9.73;;;3.25;;
71435;SDS011;59251;51.326;12.370;2023-02-28T07:33:03;10.87;;;3.13;;
71435;SDS011;59251;51.326;12.370;2023-02-28T07:35:29;10.67;;;3.13;;
71435;SDS011;59251;51.326;12.370;2023-02-28T07:37:57;12.25;;;3.67;;
71435;SDS011;59251;51.326;12.370;2023-02-28T07:40:22;11.85;;;3.15;;
71435;SDS011;59251;51.326;12.370;2023-02-28T07:42:48;16.27;;;3.53;;
71435;SDS011;59251;51.326;12.370;2023-02-28T07:45:13;10.23;;;3.40;;
71435;SDS011;59251;51.326;12.370;2023-02-28T07:47:39;9.75;;;2.90;;
71435;SDS011;59251;51.326;12.370;2023-02-28T07:50:06;11.07;;;3.50;;
71435;SDS011;59251;51.326;12.370;2023-02-28T07:52:35;10.47;;;3.13;;
71435;SDS011;59251;51.326;12.370;2023-02-28T07:55:01;10.48;;;2.92;;
71435;SDS011;59251;51.326;12.370;2023-02-28T07:57:26;9.90;;;2.83;;
71435;SDS011;59251;51.326;12.370;2023-02-28T07:59:52;9.13;;;2.90;;
71435;SDS011;59251;51.326;12.370;2023-02-28T08:02:17;10.95;;;3.58;;
71435;SDS011;59251;51.326;12.370;2023-02-28T08:04:43;11.20;;;3.53;;
71435;SDS011;59251;51.326;12.370;2023-02-28T08:07:09;9.25;;;3.13;;
71435;SDS011;59251;51.326;12.370;2023-02-28T08:09:38;10.57;;;3.17;;
71435;SDS011;59251;51.326;12.370;2023-02-28T08:12:05;10.18;;;3.13;;
71435;SDS011;59251;51.326;12.370;2023-02-28T08:14:31;15.23;;;3.30;;
71435;SDS011;59251;51.326;12.370;2023-02-28T08:16:56;9.70;;;2.87;;
71435;SDS011;59251;51.326;12.370;2023-02-28T08:19:22;9.13;;;3.30;;
71435;SDS011;59251;51.326;12.370;2023-02-28T08:21:47;9.30;;;2.87;;
71435;SDS011;59251;51.326;12.370;2023-02-28T08:24:12;11.20;;;2.60;;
71435;SDS011;59251;51.326;12.370;2023-02-28T08:26:38;13.20;;;2.92;;
71435;SDS011;59251;51.326;12.370;2023-02-28T08:29:03;9.60;;;2.50;;
71435;SDS011;59251;51.326;12.370;2023-02-28T08:31:28;9.17;;;2.73;;
71435;SDS011;59251;51.326;12.370;2023-02-28T08:33:54;8.73;;;3.00;;
71435;SDS011;59251;51.326;12.370;2023-02-28T08:36:21;8.98;;;2.63;;
71435;SDS011;59251;51.326;12.370;2023-02-28T08:38:48;9.17;;;2.60;;
71435;SDS011;59251;51.326;12.370;2023-02-28T08:41:13;8.25;;;2.17;;
71435;SDS011;59251;51.326;12.370;2023-02-28T08:43:39;9.63;;;2.87;;
71435;SDS011;59251;51.326;12.370;2023-02-28T08:46:05;8.30;;;2.85;;
71435;SDS011;59251;51.326;12.370;2023-02-28T08:48:32;10.40;;;2.20;;
71435;SDS011;59251;51.326;12.370;2023-02-28T08:51:08;7.55;;;2.25;;
71435;SDS011;59251;51.326;12.370;2023-02-28T08:53:35;8.70;;;2.80;;
71435;SDS011;59251;51.326;12.370;2023-02-28T08:56:03;9.57;;;2.03;;
71435;SDS011;59251;51.326;12.370;2023-02-28T08:58:31;11.45;;;2.78;;
71435;SDS011;59251;51.326;12.370;2023-02-28T09:00:57;7.43;;;2.00;;
71435;SDS011;59251;51.326;12.370;2023-02-28T09:03:22;9.65;;;2.33;;
71435;SDS011;59251;51.326;12.370;2023-02-28T09:05:52;9.07;;;2.93;;
71435;SDS011;59251;51.326;12.370;2023-02-28T09:08:36;9.05;;;2.60;;
71435;SDS011;59251;51.326;12.370;2023-02-28T09:11:02;6.73;;;2.13;;
71435;SDS011;59251;51.326;12.370;2023-02-28T09:13:28;10.40;;;3.05;;
71435;SDS011;59251;51.326;12.370;2023-02-28T09:15:54;8.43;;;2.28;;
71435;SDS011;59251;51.326;12.370;2023-02-28T09:18:22;10.32;;;2.55;;
71435;SDS011;59251;51.326;12.370;2023-02-28T09:20:48;9.83;;;2.53;;
71435;SDS011;59251;51.326;12.370;2023-02-28T09:23:13;9.17;;;2.50;;
71435;SDS011;59251;51.326;12.370;2023-02-28T09:25:45;9.70;;;2.60;;
71435;SDS011;59251;51.326;12.370;2023-02-28T09:28:15;9.20;;;2.72;;
71435;SDS011;59251;51.326;12.370;2023-02-28T09:30:42;8.73;;;2.90;;
71435;SDS011;59251;51.326;12.370;2023-02-28T09:33:09;12.17;;;3.10;;
71435;SDS011;59251;51.326;12.370;2023-02-28T09:35:34;9.68;;;3.17;;
71435;SDS011;59251;51.326;12.370;2023-02-28T09:38:02;8.38;;;2.60;;
71435;SDS011;59251;51.326;12.370;2023-02-28T09:40:27;9.20;;;2.75;;
71435;SDS011;59251;51.326;12.370;2023-02-28T09:42:54;10.30;;;2.77;;
71435;SDS011;59251;51.326;12.370;2023-02-28T09:45:24;11.00;;;2.88;;
71435;SDS011;59251;51.326;12.370;2023-02-28T09:47:52;11.65;;;3.05;;
71435;SDS011;59251;51.326;12.370;2023-02-28T09:50:33;8.00;;;2.60;;
71435;SDS011;59251;51.326;12.370;2023-02-28T09:53:06;8.95;;;3.05;;
71435;SDS011;59251;51.326;12.370;2023-02-28T09:55:45;11.27;;;3.03;;
71435;SDS011;59251;51.326;12.370;2023-02-28T09:58:17;9.70;;;2.60;;
71435;SDS011;59251;51.326;12.370;2023-02-28T10:00:49;8.77;;;2.63;;
71435;SDS011;59251;51.326;12.370;2023-02-28T10:05:53;9.73;;;2.28;;
71435;SDS011;59251;51.326;12.370;2023-02-28T10:08:27;8.90;;;3.20;;
71435;SDS011;59251;51.326;12.370;2023-02-28T10:10:57;10.05;;;2.85;;
71435;SDS011;59251;51.326;12.370;2023-02-28T10:13:43;12.52;;;4.00;;
71435;SDS011;59251;51.326;12.370;2023-02-28T10:16:12;7.20;;;2.55;;
71435;SDS011;59251;51.326;12.370;2023-02-28T10:18:50;9.53;;;2.60;;
71435;SDS011;59251;51.326;12.370;2023-02-28T10:21:26;9.65;;;3.00;;
71435;SDS011;59251;51.326;12.370;2023-02-28T10:23:59;10.23;;;2.70;;
71435;SDS011;59251;51.326;12.370;2023-02-28T10:26:36;10.77;;;3.00;;
71435;SDS011;59251;51.326;12.370;2023-02-28T10:29:01;8.13;;;2.30;;
71435;SDS011;59251;51.326;12.370;2023-02-28T10:31:28;8.27;;;2.45;;
71435;SDS011;59251;51.326;12.370;2023-02-28T10:33:53;7.93;;;2.55;;
71435;SDS011;59251;51.326;12.370;2023-02-28T10:36:21;9.02;;;2.60;;
71435;SDS011;59251;51.326;12.370;2023-02-28T10:38:46;10.17;;;2.80;;
71435;SDS011;59251;51.326;12.370;2023-02-28T10:41:14;8.63;;;2.15;;
71435;SDS011;59251;51.326;12.370;2023-02-28T10:44:18;8.90;;;2.78;;
71435;SDS011;59251;51.326;12.370;2023-02-28T10:46:46;9.25;;;2.80;;
71435;SDS011;59251;51.326;12.370;2023-02-28T10:49:23;10.50;;;3.28;;
71435;SDS011;59251;51.326;12.370;2023-02-28T10:51:52;9.43;;;2.63;;
71435;SDS011;59251;51.326;12.370;2023-02-28T10:54:27;10.05;;;3.22;;
71435;SDS011;59251;51.326;12.370;2023-02-28T10:57:16;9.25;;;3.03;;
71435;SDS011;59251;51.326;12.370;2023-02-28T10:59:49;9.20;;;3.15;;
71435;SDS011;59251;51.326;12.370;2023-02-28T11:02:30;10.38;;;3.38;;
71435;SDS011;59251;51.326;12.370;2023-02-28T11:05:00;9.53;;;3.03;;
71435;SDS011;59251;51.326;12.370;2023-02-28T11:07:26;7.75;;;2.72;;
71435;SDS011;59251;51.326;12.370;2023-02-28T11:09:53;9.15;;;2.80;;
71435;SDS011;59251;51.326;12.370;2023-02-28T11:12:21;10.63;;;3.10;;
71435;SDS011;59251;51.326;12.370;2023-02-28T11:14:54;11.15;;;2.60;;
71435;SDS011;59251;51.326;12.370;2023-02-28T11:17:30;9.38;;;3.10;;
71435;SDS011;59251;51.326;12.370;2023-02-28T11:19:58;10.45;;;3.25;;
71435;SDS011;59251;51.326;12.370;2023-02-28T11:22:29;7.53;;;2.70;;
71435;SDS011;59251;51.326;12.370;2023-02-28T11:24:59;9.97;;;3.77;;
71435;SDS011;59251;51.326;12.370;2023-02-28T11:29:55;9.00;;;3.00;;
71435;SDS011;59251;51.326;12.370;2023-02-28T11:32:22;10.63;;;3.55;;
71435;SDS011;59251;51.326;12.370;2023-02-28T11:35:36;8.30;;;3.00;;
71435;SDS011;59251;51.326;12.370;2023-02-28T11:37:35;11.53;;;3.37;;
71435;SDS011;59251;51.326;12.370;2023-02-28T11:40:00;9.43;;;3.20;;
71435;SDS011;59251;51.326;12.370;2023-02-28T11:42:37;9.07;;;3.97;;
71435;SDS011;59251;51.326;12.370;2023-02-28T11:45:15;11.60;;;4.60;;
71435;SDS011;59251;51.326;12.370;2023-02-28T11:47:51;9.52;;;3.63;;
71435;SDS011;59251;51.326;12.370;2023-02-28T11:50:41;9.35;;;3.65;;
71435;SDS011;59251;51.326;12.370;2023-02-28T11:53:35;10.77;;;3.20;;
71435;SDS011;59251;51.326;12.370;2023-02-28T12:06:45;11.02;;;3.95;;
71435;SDS011;59251;51.326;12.370;2023-02-28T12:26:46;9.20;;;3.87;;
71435;SDS011;59251;51.326;12.370;2023-02-28T12:29:19;9.75;;;3.60;;
71435;SDS011;59251;51.326;12.370;2023-02-28T12:31:55;12.25;;;4.53;;
71435;SDS011;59251;51.326;12.370;2023-02-28T12:34:44;10.32;;;4.28;;
71435;SDS011;59251;51.326;12.370;2023-02-28T12:37:15;10.40;;;3.90;;
71435;SDS011;59251;51.326;12.370;2023-02-28T12:39:45;10.77;;;4.87;;
71435;SDS011;59251;51.326;12.370;2023-02-28T12:42:17;10.65;;;4.22;;
71435;SDS011;59251;51.326;12.370;2023-02-28T12:45:03;11.43;;;4.93;;
71435;SDS011;59251;51.326;12.370;2023-02-28T12:47:33;11.18;;;4.75;;
71435;SDS011;59251;51.326;12.370;2023-02-28T12:50:00;11.23;;;4.80;;
71435;SDS011;59251;51.326;12.370;2023-02-28T12:55:21;9.82;;;4.38;;
71435;SDS011;59251;51.326;12.370;2023-02-28T12:57:53;9.10;;;4.10;;
71435;SDS011;59251;51.326;12.370;2023-02-28T13:00:24;11.85;;;4.65;;
71435;SDS011;59251;51.326;12.370;2023-02-28T13:11:33;14.60;;;6.23;;
71435;SDS011;59251;51.326;12.370;2023-02-28T13:14:16;15.75;;;6.05;;
71435;SDS011;59251;51.326;12.370;2023-02-28T13:19:21;11.40;;;5.43;;
71435;SDS011;59251;51.326;12.370;2023-02-28T13:21:49;12.77;;;4.97;;
71435;SDS011;59251;51.326;12.370;2023-02-28T13:29:45;13.50;;;5.20;;
71435;SDS011;59251;51.326;12.370;2023-02-28T13:34:38;11.70;;;4.70;;
71435;SDS011;59251;51.326;12.370;2023-02-28T13:39:48;11.23;;;5.20;;
71435;SDS011;59251;51.326;12.370;2023-02-28T13:47:40;9.52;;;4.43;;
71435;SDS011;59251;51.326;12.370;2023-02-28T13:58:27;14.03;;;5.17;;
71435;SDS011;59251;51.326;12.370;2023-02-28T14:03:37;14.05;;;4.78;;
71435;SDS011;59251;51.326;12.370;2023-02-28T14:06:28;12.07;;;5.10;;
71435;SDS011;59251;51.326;12.370;2023-02-28T14:11:42;13.47;;;5.90;;
71435;SDS011;59251;51.326;12.370;2023-02-28T14:14:09;11.00;;;5.03;;
71435;SDS011;59251;51.326;12.370;2023-02-28T14:17:01;12.45;;;4.60;;
71435;SDS011;59251;51.326;12.370;2023-02-28T14:19:31;9.50;;;5.10;;
71435;SDS011;59251;51.326;12.370;2023-02-28T14:38:24;11.53;;;4.83;;
71435;SDS011;59251;51.326;12.370;2023-02-28T14:40:55;12.45;;;5.00;;
71435;SDS011;59251;51.326;12.370;2023-02-28T14:43:24;11.32;;;5.20;;
71435;SDS011;59251;51.326;12.370;2023-02-28T14:45:52;10.90;;;5.70;;
71435;SDS011;59251;51.326;12.370;2023-02-28T14:48:20;14.05;;;5.18;;
71435;SDS011;59251;51.326;12.370;2023-02-28T14:50:54;14.10;;;6.23;;
71435;SDS011;59251;51.326;12.370;2023-02-28T14:53:23;15.63;;;6.25;;
71435;SDS011;59251;51.326;12.370;2023-02-28T14:55:52;15.52;;;6.38;;
71435;SDS011;59251;51.326;12.370;2023-02-28T14:58:28;18.20;;;5.60;;
71435;SDS011;59251;51.326;12.370;2023-02-28T15:00:59;13.43;;;5.05;;
71435;SDS011;59251;51.326;12.370;2023-02-28T15:03:36;11.75;;;4.93;;
71435;SDS011;59251;51.326;12.370;2023-02-28T15:06:04;12.45;;;5.15;;
71435;SDS011;59251;51.326;12.370;2023-02-28T15:08:37;11.82;;;5.20;;
71435;SDS011;59251;51.326;12.370;2023-02-28T15:11:04;12.67;;;5.00;;
71435;SDS011;59251;51.326;12.370;2023-02-28T15:13:42;12.35;;;5.28;;
71435;SDS011;59251;51.326;12.370;2023-02-28T15:18:44;11.27;;;5.10;;
71435;SDS011;59251;51.326;12.370;2023-02-28T15:21:23;17.10;;;5.20;;
71435;SDS011;59251;51.326;12.370;2023-02-28T15:23:56;11.65;;;5.72;;
71435;SDS011;59251;51.326;12.370;2023-02-28T15:26:25;11.73;;;5.50;;
71435;SDS011;59251;51.326;12.370;2023-02-28T15:29:42;10.10;;;4.90;;
71435;SDS011;59251;51.326;12.370;2023-02-28T15:31:55;12.18;;;5.07;;
71435;SDS011;59251;51.326;12.370;2023-02-28T15:34:43;11.93;;;4.97;;
71435;SDS011;59251;51.326;12.370;2023-02-28T15:42:38;11.97;;;5.03;;
71435;SDS011;59251;51.326;12.370;2023-02-28T15:45:04;15.85;;;5.60;;
71435;SDS011;59251;51.326;12.370;2023-02-28T15:47:30;13.88;;;6.20;;
71435;SDS011;59251;51.326;12.370;2023-02-28T15:49:59;13.70;;;5.68;;
71435;SDS011;59251;51.326;12.370;2023-02-28T15:52:43;15.60;;;5.93;;
71435;SDS011;59251;51.326;12.370;2023-02-28T15:55:11;14.40;;;5.95;;
71435;SDS011;59251;51.326;12.370;2023-02-28T15:57:44;14.10;;;6.25;;
71435;SDS011;59251;51.326;12.370;2023-02-28T16:00:14;15.27;;;5.93;;
71435;SDS011;59251;51.326;12.370;2023-02-28T16:02:43;13.43;;;5.60;;
71435;SDS011;59251;51.326;12.370;2023-02-28T16:07:34;15.07;;;5.40;;
71435;SDS011;59251;51.326;12.370;2023-02-28T16:10:02;13.33;;;6.33;;
71435;SDS011;59251;51.326;12.370;2023-02-28T16:12:32;16.15;;;5.90;;
71435;SDS011;59251;51.326;12.370;2023-02-28T16:15:00;19.98;;;7.03;;
71435;SDS011;59251;51.326;12.370;2023-02-28T16:17:29;15.02;;;6.30;;
71435;SDS011;59251;51.326;12.370;2023-02-28T16:19:57;16.73;;;6.53;;
71435;SDS011;59251;51.326;12.370;2023-02-28T16:22:23;16.13;;;6.55;;
71435;SDS011;59251;51.326;12.370;2023-02-28T16:24:49;16.38;;;6.97;;
71435;SDS011;59251;51.326;12.370;2023-02-28T16:27:19;18.20;;;6.73;;
71435;SDS011;59251;51.326;12.370;2023-02-28T16:29:50;16.25;;;7.13;;
71435;SDS011;59251;51.326;12.370;2023-02-28T16:32:15;14.50;;;6.10;;
71435;SDS011;59251;51.326;12.370;2023-02-28T16:34:44;14.18;;;6.03;;
71435;SDS011;59251;51.326;12.370;2023-02-28T16:37:13;13.90;;;6.30;;
71435;SDS011;59251;51.326;12.370;2023-02-28T16:39:41;14.87;;;6.37;;
71435;SDS011;59251;51.326;12.370;2023-02-28T16:42:10;18.35;;;6.38;;
71435;SDS011;59251;51.326;12.370;2023-02-28T16:44:56;13.48;;;6.20;;
71435;SDS011;59251;51.326;12.370;2023-02-28T16:47:22;12.80;;;6.82;;
71435;SDS011;59251;51.326;12.370;2023-02-28T16:49:48;16.58;;;6.25;;